createdAt,value
2023-05-05T00:01:06.348Z,9.7
2023-05-05T00:03:14.672Z,9.7
2023-05-05T00:05:23.861Z,9.7
2023-05-05T00:07:31.717Z,9.7
2023-05-05T00:09:39.614Z,9.6
2023-05-05T00:11:47.818Z,9.6
2023-05-05T00:13:55.565Z,9.6
2023-05-05T00:16:03.868Z,9.6
2023-05-05T00:18:13.540Z,9.6
2023-05-05T00:20:22.831Z,9.6
2023-05-05T00:22:30.482Z,9.6
2023-05-05T00:24:38.152Z,9.6
2023-05-05T00:26:45.819Z,9.6
2023-05-05T00:28:53.498Z,9.6
2023-05-05T00:31:01.722Z,9.6
2023-05-05T00:33:09.690Z,9.6
2023-05-05T00:35:19.186Z,9.5
2023-05-05T00:37:27.017Z,9.5
2023-05-05T00:39:34.980Z,9.5
2023-05-05T00:41:42.686Z,9.5
2023-05-05T00:43:50.590Z,9.5
2023-05-05T00:46:02.962Z,9.5
2023-05-05T00:48:10.995Z,9.5
2023-05-05T00:50:24.481Z,9.5
2023-05-05T00:52:32.430Z,9.5
2023-05-05T00:54:40.263Z,9.5
2023-05-05T00:56:49.473Z,9.4
2023-05-05T00:58:58.303Z,9.4
2023-05-05T01:01:06.301Z,9.4
2023-05-05T01:03:15.175Z,9.4
2023-05-05T01:05:26.891Z,9.3
2023-05-05T01:07:44.176Z,9.3
2023-05-05T01:10:07.515Z,9.4
2023-05-05T01:12:31.416Z,9.3
2023-05-05T01:14:41.935Z,9.3
2023-05-05T01:16:57.009Z,9.3
2023-05-05T01:19:25.519Z,9.3
2023-05-05T01:21:39.769Z,9.3
2023-05-05T01:24:20.950Z,9.3
2023-05-05T01:26:49.038Z,9.3
2023-05-05T01:29:32.298Z,9.2
2023-05-05T01:31:53.815Z,9.2
2023-05-05T01:34:07.106Z,9.2
2023-05-05T01:36:22.630Z,9.2
2023-05-05T01:38:37.129Z,9.1
2023-05-05T01:40:49.039Z,9.1
2023-05-05T01:42:58.212Z,9.1
2023-05-05T01:45:09.300Z,9.1
2023-05-05T01:47:21.790Z,9.1
2023-05-05T01:49:30.287Z,9.1
2023-05-05T01:51:40.032Z,9.1
2023-05-05T01:53:48.727Z,9.1
2023-05-05T01:56:02.215Z,9.1
2023-05-05T01:58:13.277Z,9.1
2023-05-05T02:00:22.698Z,9.1
2023-05-05T02:02:33.223Z,9.1
2023-05-05T02:04:44.254Z,9.1
2023-05-05T02:06:54.254Z,9.1
2023-05-05T02:09:03.478Z,9.1
2023-05-05T02:11:12.568Z,9
2023-05-05T02:13:23.226Z,9
2023-05-05T02:15:33.797Z,9
2023-05-05T02:17:43.736Z,9
2023-05-05T02:19:53.880Z,9
2023-05-05T02:22:01.738Z,9
2023-05-05T02:24:09.703Z,9
2023-05-05T02:26:19.580Z,9
2023-05-05T02:28:38.224Z,9
2023-05-05T02:30:49.802Z,8.9
2023-05-05T02:33:06.804Z,9
2023-05-05T02:35:18.883Z,8.9
2023-05-05T02:37:30.687Z,8.9
2023-05-05T02:39:43.842Z,8.9
2023-05-05T02:41:53.946Z,8.9
2023-05-05T02:44:05.144Z,8.8
2023-05-05T02:46:13.030Z,8.9
2023-05-05T02:48:22.245Z,8.8
2023-05-05T02:50:30.475Z,8.8
2023-05-05T02:52:38.758Z,8.8
2023-05-05T02:54:46.572Z,8.8
2023-05-05T02:56:57.643Z,8.8
2023-05-05T02:59:15.929Z,8.8
2023-05-05T03:01:36.509Z,8.8
2023-05-05T03:03:52.971Z,8.8
2023-05-05T03:06:08.213Z,8.8
2023-05-05T03:08:27.590Z,8.8
2023-05-05T03:10:55.911Z,8.8
2023-05-05T03:13:04.055Z,8.8
2023-05-05T03:15:13.418Z,8.8
2023-05-05T03:17:23.511Z,8.8
2023-05-05T03:19:35.280Z,8.8
2023-05-05T03:21:43.335Z,8.8
2023-05-05T03:23:51.102Z,8.8
2023-05-05T03:25:59.140Z,8.8
2023-05-05T03:28:06.837Z,8.8
2023-05-05T03:30:15.396Z,8.8
2023-05-05T03:32:24.088Z,8.8
2023-05-05T03:34:33.303Z,8.8
2023-05-05T03:36:41.227Z,8.8
2023-05-05T03:38:49.065Z,8.8
2023-05-05T03:40:56.907Z,8.9
2023-05-05T03:43:04.725Z,8.9
2023-05-05T03:45:12.709Z,8.9
2023-05-05T03:47:20.437Z,8.9
2023-05-05T03:49:28.178Z,8.9
2023-05-05T03:51:37.254Z,8.9
2023-05-05T03:53:45.012Z,8.9
2023-05-05T03:55:52.779Z,8.9
2023-05-05T03:58:00.667Z,8.9
2023-05-05T04:00:11.783Z,8.9
2023-05-05T04:02:19.618Z,8.9
2023-05-05T04:04:27.491Z,8.9
2023-05-05T04:06:36.589Z,8.9
2023-05-05T04:08:44.324Z,8.9
2023-05-05T04:10:52.227Z,8.9
2023-05-05T04:13:00.157Z,8.9
2023-05-05T04:15:08.933Z,8.9
2023-05-05T04:17:16.624Z,8.9
2023-05-05T04:19:24.397Z,8.9
2023-05-05T04:21:32.299Z,8.9
2023-05-05T04:23:41.362Z,8.9
2023-05-05T04:25:49.175Z,9
2023-05-05T04:27:56.875Z,9
2023-05-05T04:30:05.712Z,9
2023-05-05T04:32:13.602Z,9
2023-05-05T04:34:22.221Z,9
2023-05-05T04:36:29.936Z,9
2023-05-05T04:38:37.714Z,9.1
2023-05-05T04:40:46.799Z,9
2023-05-05T04:42:54.563Z,9
2023-05-05T04:45:02.479Z,9.1
2023-05-05T04:47:11.460Z,9.1
2023-05-05T04:49:21.128Z,9.1
2023-05-05T04:51:28.816Z,9.1
2023-05-05T04:53:36.524Z,9.1
2023-05-05T04:55:45.562Z,9.1
2023-05-05T04:57:53.250Z,9.1
2023-05-05T05:00:01.890Z,9.1
2023-05-05T05:02:10.253Z,9.2
2023-05-05T05:04:18.344Z,9.2
2023-05-05T05:06:27.108Z,9.2
2023-05-05T05:08:34.815Z,9.2
2023-05-05T05:10:43.455Z,9.3
2023-05-05T05:12:52.686Z,9.3
2023-05-05T05:15:00.449Z,9.4
2023-05-05T05:17:08.406Z,9.4
2023-05-05T05:19:16.141Z,9.4
2023-05-05T05:21:23.909Z,9.4
2023-05-05T05:23:31.668Z,9.4
2023-05-05T05:25:39.514Z,9.4
2023-05-05T05:27:52.445Z,9.4
2023-05-05T05:30:10.494Z,9.4
2023-05-05T05:32:18.299Z,9.4
2023-05-05T05:34:26.019Z,9.4
2023-05-05T05:36:33.725Z,9.6
2023-05-05T05:38:41.423Z,9.7
2023-05-05T05:40:49.224Z,9.7
2023-05-05T05:42:57.092Z,9.8
2023-05-05T05:45:11.418Z,9.8
2023-05-05T05:47:19.358Z,9.8
2023-05-05T05:49:27.257Z,9.8
2023-05-05T05:51:34.966Z,9.8
2023-05-05T05:53:42.763Z,9.9
2023-05-05T05:55:50.545Z,9.9
2023-05-05T05:57:58.198Z,10
2023-05-05T06:00:07.587Z,10
2023-05-05T06:02:17.399Z,10.1
2023-05-05T06:04:25.428Z,10.1
2023-05-05T06:06:32.981Z,10.2
2023-05-05T06:08:42.225Z,10.2
2023-05-05T06:10:49.979Z,10.3
2023-05-05T06:12:57.824Z,10.4
2023-05-05T06:15:06.963Z,10.4
2023-05-05T06:17:14.973Z,10.6
2023-05-05T06:19:24.033Z,10.6
2023-05-05T06:21:31.857Z,10.7
2023-05-05T06:23:39.974Z,10.7
2023-05-05T06:25:47.933Z,10.6
2023-05-05T06:27:55.719Z,10.6
2023-05-05T06:30:03.792Z,10.6
2023-05-05T06:32:12.634Z,10.7
2023-05-05T06:34:20.401Z,10.6
2023-05-05T06:36:29.789Z,10.6
2023-05-05T06:38:37.625Z,10.6
2023-05-05T06:40:45.312Z,10.6
2023-05-05T06:42:53.010Z,10.5
2023-05-05T06:45:00.713Z,10.5
2023-05-05T06:47:08.555Z,10.6
2023-05-05T06:49:16.563Z,10.8
2023-05-05T06:51:24.361Z,10.9
2023-05-05T06:53:33.985Z,11
2023-05-05T06:55:45.398Z,11
2023-05-05T06:57:53.178Z,11.1
2023-05-05T07:00:01.142Z,11.1
2023-05-05T07:02:09.096Z,11.1
2023-05-05T07:04:18.264Z,11
2023-05-05T07:06:26.882Z,11
2023-05-05T07:08:36.483Z,11
2023-05-05T07:10:44.267Z,10.9
2023-05-05T07:12:54.608Z,10.8
2023-05-05T07:15:09.532Z,10.8
2023-05-05T07:17:22.285Z,10.8
2023-05-05T07:19:30.264Z,10.8
2023-05-05T07:21:39.595Z,10.9
2023-05-05T07:23:48.782Z,10.9
2023-05-05T07:25:56.542Z,10.9
2023-05-05T07:28:04.828Z,10.9
2023-05-05T07:30:16.492Z,11
2023-05-05T07:32:27.024Z,11.1
2023-05-05T07:34:36.865Z,11.1
2023-05-05T07:36:45.322Z,11.1
2023-05-05T07:38:54.677Z,11.1
2023-05-05T07:41:02.573Z,11
2023-05-05T07:43:10.491Z,11.1
2023-05-05T07:45:18.577Z,11.1
2023-05-05T07:47:26.736Z,11.1
2023-05-05T07:49:34.661Z,11.2
2023-05-05T07:51:42.557Z,11.2
2023-05-05T07:53:50.453Z,11.4
2023-05-05T07:55:59.611Z,11.6
2023-05-05T07:58:07.456Z,11.7
2023-05-05T08:00:19.249Z,11.7
2023-05-05T08:02:27.050Z,11.7
2023-05-05T08:04:34.813Z,11.7
2023-05-05T08:06:42.643Z,11.8
2023-05-05T08:08:50.596Z,12
2023-05-05T08:11:00.844Z,12.2
2023-05-05T08:13:08.871Z,12.5
2023-05-05T08:15:16.734Z,12.5
2023-05-05T08:17:25.713Z,12.7
2023-05-05T08:19:33.456Z,12.9
2023-05-05T08:21:41.163Z,13
2023-05-05T08:23:48.966Z,13.2
2023-05-05T08:25:56.707Z,13.2
2023-05-05T08:28:05.767Z,13.1
2023-05-05T08:30:14.312Z,12.9
2023-05-05T08:32:22.031Z,12.8
2023-05-05T08:34:29.752Z,12.6
2023-05-05T08:36:37.497Z,12.6
2023-05-05T08:38:45.500Z,12.7
2023-05-05T08:40:53.539Z,12.7
2023-05-05T08:43:02.204Z,12.7
2023-05-05T08:45:12.120Z,12.7
2023-05-05T08:47:20.256Z,12.8
2023-05-05T08:49:32.532Z,12.7
2023-05-05T08:51:44.285Z,12.6
2023-05-05T08:53:58.829Z,12.6
2023-05-05T08:56:07.539Z,12.7
2023-05-05T08:58:18.551Z,12.6
2023-05-05T09:00:28.687Z,12.7
2023-05-05T09:02:37.774Z,12.9
2023-05-05T09:04:45.610Z,13.1
2023-05-05T09:06:53.342Z,13.3
2023-05-05T09:09:02.782Z,13.3
2023-05-05T09:11:10.496Z,13.3
2023-05-05T09:13:18.614Z,13.4
2023-05-05T09:15:28.309Z,13.6
2023-05-05T09:17:36.183Z,13.7
2023-05-05T09:20:01.420Z,13.8
2023-05-05T09:22:09.161Z,13.9
2023-05-05T09:24:16.924Z,13.8
2023-05-05T09:26:24.884Z,13.7
2023-05-05T09:28:33.039Z,13.6
2023-05-05T09:30:43.421Z,13.7
2023-05-05T09:32:52.544Z,14
2023-05-05T09:35:01.032Z,14.4
2023-05-05T09:37:08.785Z,14.7
2023-05-05T09:39:19.412Z,14.7
2023-05-05T09:41:38.443Z,14.6
2023-05-05T09:43:52.295Z,14.5
2023-05-05T09:46:08.542Z,14.5
2023-05-05T09:48:27.324Z,14.5
2023-05-05T09:50:44.338Z,14.4
2023-05-05T09:52:57.114Z,14.5
2023-05-05T09:55:05.394Z,14.5
2023-05-05T09:57:27.313Z,14.4
2023-05-05T09:59:35.542Z,14.5
2023-05-05T10:01:44.776Z,14.7
2023-05-05T10:03:53.064Z,14.9
2023-05-05T10:06:00.940Z,15
2023-05-05T10:08:13.864Z,15.1
2023-05-05T10:10:21.641Z,15.2
2023-05-05T10:12:30.813Z,15.3
2023-05-05T10:14:38.589Z,15.2
2023-05-05T10:16:50.992Z,15.2
2023-05-05T10:19:02.384Z,15.1
2023-05-05T10:21:11.478Z,15.2
2023-05-05T10:23:21.310Z,15.3
2023-05-05T10:25:31.441Z,15.3
2023-05-05T10:27:44.370Z,15.2
2023-05-05T10:29:58.423Z,15.2
2023-05-05T10:32:33.786Z,15.2
2023-05-05T10:34:51.180Z,15.3
2023-05-05T10:37:00.475Z,15.3
2023-05-05T10:39:10.717Z,15.4
2023-05-05T10:41:23.949Z,15.4
2023-05-05T10:43:32.341Z,15.5
2023-05-05T10:45:41.349Z,15.5
2023-05-05T10:47:52.475Z,15.5
2023-05-05T10:50:07.584Z,15.6
2023-05-05T10:52:26.709Z,15.4
2023-05-05T10:54:40.680Z,15
2023-05-05T10:56:49.251Z,14.6
2023-05-05T10:58:59.984Z,14.5
2023-05-05T11:01:09.858Z,14.7
2023-05-05T11:03:24.106Z,14.8
2023-05-05T11:05:32.253Z,14.9
2023-05-05T11:07:40.550Z,15.1
2023-05-05T11:09:58.681Z,15.1
2023-05-05T11:12:07.214Z,15
2023-05-05T11:14:22.758Z,14.8
2023-05-05T11:16:45.627Z,14.4
2023-05-05T11:18:54.767Z,14.1
2023-05-05T11:21:08.954Z,13.9
2023-05-05T11:23:23.158Z,13.8
2023-05-05T11:25:47.791Z,13.7
2023-05-05T11:28:08.940Z,13.7
2023-05-05T11:30:17.585Z,13.5
2023-05-05T11:32:26.013Z,13.5
2023-05-05T11:34:35.311Z,13.4
2023-05-05T11:36:44.847Z,13.3
2023-05-05T11:39:09.378Z,13.3
2023-05-05T11:41:27.000Z,13.2
2023-05-05T11:43:34.817Z,13.2
2023-05-05T11:45:42.921Z,13.1
2023-05-05T11:47:50.804Z,13
2023-05-05T11:50:17.930Z,12.9
2023-05-05T11:52:27.603Z,13
2023-05-05T11:54:37.095Z,13.1
2023-05-05T11:56:51.227Z,13.2
2023-05-05T11:59:16.834Z,13.3
2023-05-05T12:01:24.647Z,13.4
2023-05-05T12:03:36.203Z,13.8
2023-05-05T12:05:47.311Z,13.8
2023-05-05T12:07:59.250Z,13.9
2023-05-05T12:10:08.596Z,13.9
2023-05-05T12:12:17.120Z,14.1
2023-05-05T12:14:25.874Z,14.3
2023-05-05T12:16:33.818Z,14.2
2023-05-05T12:18:42.452Z,13.8
2023-05-05T12:20:54.792Z,13.6
2023-05-05T12:23:03.822Z,13.5
2023-05-05T12:25:11.924Z,13.4
2023-05-05T12:27:19.706Z,13.4
2023-05-05T12:29:29.547Z,13.4
2023-05-05T12:31:38.339Z,13.3
2023-05-05T12:33:46.838Z,13.1
2023-05-05T12:35:56.716Z,13
2023-05-05T12:38:04.978Z,12.8
2023-05-05T12:40:44.915Z,12.7
2023-05-05T12:42:53.573Z,12.6
2023-05-05T12:45:01.688Z,12.7
2023-05-05T12:47:09.623Z,12.6
2023-05-05T12:49:17.885Z,12.6
2023-05-05T12:51:26.984Z,12.5
2023-05-05T12:53:35.017Z,12.4
2023-05-05T12:55:45.766Z,12.5
2023-05-05T12:58:01.298Z,12.4
2023-05-05T13:00:17.719Z,12.4
2023-05-05T13:02:34.947Z,12.4
2023-05-05T13:04:50.687Z,12.5
2023-05-05T13:07:13.574Z,12.4
2023-05-05T13:09:24.953Z,12.4
2023-05-05T13:11:36.376Z,12.4
2023-05-05T13:13:44.095Z,12.4
2023-05-05T13:15:51.997Z,12.5
2023-05-05T13:18:00.873Z,12.4
2023-05-05T13:20:11.247Z,12.4
2023-05-05T13:22:20.328Z,12.5
2023-05-05T13:24:38.510Z,12.4
2023-05-05T13:26:52.215Z,12.4
2023-05-05T13:29:00.115Z,12.4
2023-05-05T13:31:08.277Z,12.4
2023-05-05T13:33:16.010Z,12.4
2023-05-05T13:35:24.221Z,12.4
2023-05-05T13:37:33.308Z,12.5
2023-05-05T13:39:41.337Z,12.6
2023-05-05T13:41:49.660Z,12.7
2023-05-05T13:43:57.510Z,12.7
2023-05-05T13:46:19.557Z,12.6
2023-05-05T13:48:29.218Z,12.6
2023-05-05T13:50:37.031Z,12.8
2023-05-05T13:52:46.265Z,12.9
2023-05-05T13:54:54.131Z,12.9
2023-05-05T13:57:02.877Z,13
2023-05-05T13:59:10.628Z,13.1
2023-05-05T14:01:19.016Z,13.4
2023-05-05T14:03:29.156Z,13.5
2023-05-05T14:05:37.664Z,13.4
2023-05-05T14:07:46.873Z,13.4
2023-05-05T14:09:54.585Z,13.2
2023-05-05T14:12:03.415Z,13
2023-05-05T14:14:11.212Z,12.7
2023-05-05T14:16:19.167Z,12.6
2023-05-05T14:18:28.042Z,12.5
2023-05-05T14:20:35.899Z,12.5
2023-05-05T14:22:43.805Z,12.4
2023-05-05T14:24:52.934Z,12.3
2023-05-05T14:27:02.167Z,12.3
2023-05-05T14:29:10.192Z,12.2
2023-05-05T14:31:18.468Z,12.2
2023-05-05T14:33:26.443Z,12.2
2023-05-05T14:35:34.352Z,12.3
2023-05-05T14:37:42.317Z,12.4
2023-05-05T14:39:50.102Z,12.4
2023-05-05T14:41:59.293Z,12.4
2023-05-05T14:44:07.045Z,12.5
2023-05-05T14:46:14.800Z,12.5
2023-05-05T14:48:22.824Z,12.6
2023-05-05T14:50:30.570Z,12.6
2023-05-05T14:52:39.179Z,12.7
2023-05-05T14:54:47.193Z,12.6
2023-05-05T14:56:56.083Z,12.5
2023-05-05T14:59:05.517Z,12.4
2023-05-05T15:01:13.287Z,12.3
2023-05-05T15:03:21.318Z,12.2
2023-05-05T15:05:29.176Z,12.2
2023-05-05T15:07:36.866Z,12.1
2023-05-05T15:09:44.533Z,12.1
2023-05-05T15:11:52.345Z,12
2023-05-05T15:14:00.194Z,12
2023-05-05T15:16:10.150Z,11.9
2023-05-05T15:18:17.901Z,11.8
2023-05-05T15:20:25.720Z,11.7
2023-05-05T15:22:33.498Z,11.7
2023-05-05T15:24:41.893Z,11.6
2023-05-05T15:26:49.695Z,11.5
2023-05-05T15:28:57.417Z,11.5
2023-05-05T15:31:09.603Z,11.4
2023-05-05T15:33:17.713Z,11.4
2023-05-05T15:35:25.769Z,11.4
2023-05-05T15:37:33.685Z,11.3
2023-05-05T15:39:41.433Z,11.3
2023-05-05T15:41:49.147Z,11.3
2023-05-05T15:43:56.994Z,11.3
2023-05-05T15:46:04.820Z,11.3
2023-05-05T15:48:13.969Z,11.3
2023-05-05T15:50:21.860Z,11.3
2023-05-05T15:52:29.542Z,11.3
2023-05-05T15:54:37.237Z,11.3
2023-05-05T15:56:45.190Z,11.2
2023-05-05T15:58:52.925Z,11.1
2023-05-05T16:01:00.864Z,11.1
2023-05-05T16:03:08.662Z,11.1
2023-05-05T16:05:18.526Z,11
2023-05-05T16:07:26.959Z,11
2023-05-05T16:09:34.660Z,10.9
2023-05-05T16:11:42.385Z,10.9
2023-05-05T16:13:50.369Z,10.9
2023-05-05T16:15:58.229Z,10.9
2023-05-05T16:18:06.294Z,10.9
2023-05-05T16:20:14.264Z,10.8
2023-05-05T16:22:23.314Z,10.7
2023-05-05T16:24:31.149Z,10.7
2023-05-05T16:26:38.891Z,10.6
2023-05-05T16:28:46.675Z,10.6
2023-05-05T16:30:54.550Z,10.5
2023-05-05T16:33:02.326Z,10.4
2023-05-05T16:35:11.975Z,10.4
2023-05-05T16:37:19.703Z,10.4
2023-05-05T16:39:28.989Z,10.3
2023-05-05T16:41:36.722Z,10.2
2023-05-05T16:43:44.354Z,10.2
2023-05-05T16:45:52.254Z,10.1
2023-05-05T16:48:00.154Z,10.1
2023-05-05T16:50:08.790Z,10.1
2023-05-05T16:52:18.345Z,10.1
2023-05-05T16:54:26.204Z,10.1
2023-05-05T16:56:35.254Z,10
2023-05-05T16:58:42.951Z,10.1
2023-05-05T17:00:50.918Z,10.1
2023-05-05T17:02:58.837Z,10
2023-05-05T17:05:07.467Z,10
2023-05-05T17:07:15.550Z,10
2023-05-05T17:09:24.762Z,10
2023-05-05T17:11:32.457Z,10
2023-05-05T17:13:41.868Z,10
2023-05-05T17:15:50.260Z,10
2023-05-05T17:17:58.065Z,10
2023-05-05T17:20:07.755Z,10
2023-05-05T17:22:16.149Z,10
2023-05-05T17:24:23.960Z,10
2023-05-05T17:26:31.650Z,10
2023-05-05T17:28:40.741Z,10
2023-05-05T17:30:48.465Z,9.9
2023-05-05T17:32:56.737Z,9.9
2023-05-05T17:35:04.685Z,10
2023-05-05T17:37:12.556Z,9.9
2023-05-05T17:39:20.232Z,9.9
2023-05-05T17:41:28.047Z,9.9
2023-05-05T17:43:35.757Z,9.8
2023-05-05T17:45:44.829Z,9.8
2023-05-05T17:47:52.672Z,9.8
2023-05-05T17:50:00.576Z,9.7
2023-05-05T17:52:08.515Z,9.6
2023-05-05T17:54:16.495Z,9.5
2023-05-05T17:56:24.258Z,9.4
2023-05-05T17:58:31.926Z,9.4
2023-05-05T18:00:39.673Z,9.3
2023-05-05T18:02:53.370Z,9.2
2023-05-05T18:05:01.519Z,9.2
2023-05-05T18:07:10.422Z,9.2
2023-05-05T18:09:18.120Z,9.2
2023-05-05T18:11:27.632Z,9.1
2023-05-05T18:13:35.725Z,9.1
2023-05-05T18:15:43.612Z,9
2023-05-05T18:17:53.646Z,9
2023-05-05T18:20:01.405Z,8.9
2023-05-05T18:22:09.178Z,8.9
2023-05-05T18:24:20.264Z,8.8
2023-05-05T18:26:29.889Z,8.8
2023-05-05T18:28:39.564Z,8.7
2023-05-05T18:30:47.450Z,8.7
2023-05-05T18:32:57.012Z,8.6
2023-05-05T18:35:05.727Z,8.6
2023-05-05T18:37:13.418Z,8.5
2023-05-05T18:39:21.269Z,8.5
2023-05-05T18:41:28.991Z,8.4
2023-05-05T18:43:36.695Z,8.4
2023-05-05T18:45:44.601Z,8.4
2023-05-05T18:47:52.455Z,8.4
2023-05-05T18:50:02.162Z,8.3
2023-05-05T18:52:09.965Z,8.3
2023-05-05T18:54:17.687Z,8.3
2023-05-05T18:56:25.395Z,8.3
2023-05-05T18:58:33.083Z,8.3
2023-05-05T19:00:46.418Z,8.3
2023-05-05T19:02:55.589Z,8.3
2023-05-05T19:05:05.176Z,8.3
2023-05-05T19:07:18.491Z,8.3
2023-05-05T19:09:32.889Z,8.2
2023-05-05T19:11:41.745Z,8.2
2023-05-05T19:13:49.572Z,8.2
2023-05-05T19:15:57.831Z,8.2
2023-05-05T19:18:06.742Z,8.1
2023-05-05T19:20:15.951Z,8.1
2023-05-05T19:22:23.877Z,8.1
2023-05-05T19:24:31.914Z,8.1
2023-05-05T19:26:39.704Z,8.1
2023-05-05T19:28:47.373Z,8
2023-05-05T19:30:55.256Z,8
2023-05-05T19:33:03.023Z,8
2023-05-05T19:35:11.747Z,7.9
2023-05-05T19:37:21.298Z,7.9
2023-05-05T19:39:29.013Z,7.9
2023-05-05T19:41:39.160Z,7.9
2023-05-05T19:43:47.293Z,7.9
2023-05-05T19:45:55.216Z,7.8
2023-05-05T19:48:03.104Z,7.8
2023-05-05T19:50:11.728Z,7.8
2023-05-05T19:52:22.414Z,7.8
2023-05-05T19:54:30.366Z,7.8
2023-05-05T19:56:38.318Z,7.8
2023-05-05T19:58:57.178Z,7.7
2023-05-05T20:01:04.944Z,7.7
2023-05-05T20:03:12.736Z,7.7
2023-05-05T20:05:20.559Z,7.7
2023-05-05T20:07:29.667Z,7.7
2023-05-05T20:09:38.062Z,7.7
2023-05-05T20:11:45.999Z,7.7
2023-05-05T20:13:53.791Z,7.7
2023-05-05T20:16:01.629Z,7.7
2023-05-05T20:18:10.721Z,7.6
2023-05-05T20:20:20.288Z,7.6
2023-05-05T20:22:30.001Z,7.6
2023-05-05T20:24:37.753Z,7.7
2023-05-05T20:26:45.881Z,7.6
2023-05-05T20:28:53.744Z,7.5
2023-05-05T20:31:01.987Z,7.5
2023-05-05T20:33:09.845Z,7.5
2023-05-05T20:35:17.638Z,7.5
2023-05-05T20:37:27.015Z,7.5
2023-05-05T20:39:36.268Z,7.5
2023-05-05T20:41:46.313Z,7.5
2023-05-05T20:43:54.081Z,7.5
2023-05-05T20:46:02.623Z,7.5
2023-05-05T20:48:11.239Z,7.5
2023-05-05T20:50:20.227Z,7.5
2023-05-05T20:52:27.978Z,7.5
2023-05-05T20:54:37.043Z,7.5
2023-05-05T20:56:44.800Z,7.5
2023-05-05T20:58:52.697Z,7.5
2023-05-05T21:01:00.811Z,7.5
2023-05-05T21:03:08.815Z,7.5
2023-05-05T21:05:16.599Z,7.5
2023-05-05T21:07:24.405Z,7.5
2023-05-05T21:09:32.283Z,7.5
2023-05-05T21:11:41.331Z,7.5
2023-05-05T21:13:49.404Z,7.5
2023-05-05T21:15:57.219Z,7.5
2023-05-05T21:18:05.442Z,7.5
2023-05-05T21:20:13.849Z,7.5
2023-05-05T21:22:22.208Z,7.5
2023-05-05T21:24:29.897Z,7.5
2023-05-05T21:26:37.705Z,7.4
2023-05-05T21:28:46.937Z,7.5
2023-05-05T21:31:10.776Z,7.5
2023-05-05T21:33:21.922Z,7.5
2023-05-05T21:35:29.714Z,7.5
2023-05-05T21:37:38.914Z,7.5
2023-05-05T21:39:46.717Z,7.5
2023-05-05T21:41:55.051Z,7.5
2023-05-05T21:44:04.612Z,7.5
2023-05-05T21:46:12.443Z,7.5
2023-05-05T21:48:20.536Z,7.5
2023-05-05T21:50:29.536Z,7.5
2023-05-05T21:52:37.342Z,7.4
2023-05-05T21:54:45.052Z,7.4
2023-05-05T21:56:52.734Z,7.4
2023-05-05T21:59:00.600Z,7.4
2023-05-05T22:01:09.779Z,7.4
2023-05-05T22:03:17.592Z,7.5
2023-05-05T22:05:25.386Z,7.4
2023-05-05T22:07:33.187Z,7.5
2023-05-05T22:09:41.337Z,7.5
2023-05-05T22:11:51.231Z,7.5
2023-05-05T22:14:06.877Z,7.5
2023-05-05T22:16:19.828Z,7.5
2023-05-05T22:18:27.711Z,7.5
2023-05-05T22:20:36.062Z,7.5
2023-05-05T22:23:15.891Z,7.5
2023-05-05T22:25:11.179Z,7.5
2023-05-05T22:27:19.208Z,7.4
2023-05-05T22:29:47.221Z,7.5
2023-05-05T22:32:00.822Z,7.5
2023-05-05T22:34:10.444Z,7.5
2023-05-05T22:36:18.296Z,7.4
2023-05-05T22:38:34.936Z,7.4
2023-05-05T22:40:43.252Z,7.5
2023-05-05T22:42:54.708Z,7.5
2023-05-05T22:45:07.990Z,7.5
2023-05-05T22:47:19.315Z,7.5
2023-05-05T22:49:27.588Z,7.5
2023-05-05T22:51:35.508Z,7.5
2023-05-05T22:53:43.509Z,7.5
2023-05-05T22:55:52.413Z,7.5
2023-05-05T22:58:00.475Z,7.5
2023-05-05T23:00:11.418Z,7.5
2023-05-05T23:02:21.998Z,7.5
2023-05-05T23:04:29.879Z,7.5
2023-05-05T23:06:39.636Z,7.5
2023-05-05T23:08:48.923Z,7.5
2023-05-05T23:10:57.076Z,7.5
2023-05-05T23:13:05.525Z,7.5
2023-05-05T23:15:13.746Z,7.5
2023-05-05T23:17:23.499Z,7.4
2023-05-05T23:19:32.506Z,7.5
2023-05-05T23:21:49.650Z,7.5
2023-05-05T23:24:00.428Z,7.5
2023-05-05T23:26:08.179Z,7.5
2023-05-05T23:28:15.908Z,7.5
2023-05-05T23:30:23.652Z,7.5
2023-05-05T23:32:32.711Z,7.5
2023-05-05T23:34:40.435Z,7.5
2023-05-05T23:36:48.122Z,7.5
2023-05-05T23:38:55.839Z,7.5
2023-05-05T23:41:03.559Z,7.5
2023-05-05T23:43:12.313Z,7.5
2023-05-05T23:45:20.111Z,7.5
2023-05-05T23:47:27.817Z,7.5
2023-05-05T23:49:36.904Z,7.5
2023-05-05T23:51:44.591Z,7.5
2023-05-05T23:53:52.768Z,7.5
2023-05-05T23:56:00.479Z,7.5
2023-05-05T23:58:08.318Z,7.5
